Aérodrome :
LOGIN :

S'inscrire | Disclaimer

   EN    FR    IT 

 










Légende :    VFR   VFR Marginal   IFR   IFR Intensif   IFR Très Intensif
Visi : 
Plafond : 
>= 8 km
>= 3000ft
5 à 8 km
1000 à 3000 ft
1500m à 5 km
500 à 1000 ft
800 à 1500m
200 à 500 ft
< 800m
< 200 ft
Symboles :   Orages  Brouillard  Fortes neiges  Fortes précipitations  Vent > 20 kt
SIGMETs :   Divers  Orages  Givrage  Turbulence  Onde Orograph.  Cendres Volcan.







- Altitude de l'aérodrome : 461 ft
- Code IATA : WIE


ETOU - Wiesbaden Army

DERNIER METAR :
  • 202022Z AUTO 00000KT 9999 OVC009 01/00 A2952 RMK AO2 RAE03DZB03E12 CIG 008 RWY07 SLP006 $

METARs EXPIRÉS :
  • 201956Z AUTO 00000KT 9999 -RA OVC008 01/00 A2952 RMK AO2 RAE10RAB45 SLP006 P0000 T00051002 $
  • 201945Z AUTO 00000KT 9999 -RA OVC009 01/00 A2952 RMK AO2 RAE10RAB45 CIG 008 RWY07 SLP006 $
  • 201910Z AUTO 00000KT 9999 OVC009 01/00 A2951 RMK AO2 RAE10 SLP002 $
  • 201856Z AUTO 00000KT 9999 -RA OVC009 01/00 A2951 RMK AO2 SNE14RAB14 SLP002 P0000 T00070000 $
  • 201836Z AUTO 00000KT 9999 -RA OVC008 01/00 A2950 RMK AO2 SNE14RAB14 SLP999 $
  • 201756Z AUTO 00000KT 5000 -SN BR OVC009 00/00 A2951 RMK AO2 SLP003 P0001 60026 T00041002 10033 20002 57021 $
  • 201740Z AUTO 08003KT 3600 -SN BR OVC009 00/00 A2951 RMK AO2 VIS 2800V3600 CIG 007V009 CIG 004 RWY07 SLP003 $

Prévision TAF périmée.
Pas de NOTAMs connus pour ce terrain.
2 SIGMETs publiés pour la FIR Langen (EDGG) :
 
Turbulence forte
EDGG SIGMET 4 VALID 201816/202100 EDZF
EDGG LANGEN FIR SEV TURB FCST SW OF LINE N5045 E00800 - N5220 E00705 FL180/300 MOV ENE NC=
Turbulence forte
EDGG SIGMET 3 VALID 201805/202100 EDZF
EDGG LANGEN FIR SEV TURB FCST WI N5048 E00802 - N4755 E00852 - N4736 E00741 - N4900 E00809 - N4911 E00644 - N5025 E00620 - N5025 E00621 - N5048 E00802 FL180/300 MOV ENE NC=



MET'MAP, la Météo Aéronautique d'un coup d'oeil ! - Copyright ORBIFLY Décembre 2007 - Disclaimer

ORBIFLY MET'MAP TEAM :

Programmation & Développement : Alexandra Zaïnal
Conception & Développement : Baudouin d'Aumeries
Co-Programmation & Développement : Marc-Olivier Méhu
Soutien technique & logistique : Manuel Goepfert

Contact : metmap@orbifly.com




SOURCES & CREDITS :

   NOAA